This is the latest recevied weather packets stored in our database for station/object HB9ZRH-10. If no packets are shown the sender has not sent any weather packets the latest 10 day(s).
| Time | Temp. | Humidity | Pressure | Rain* | Wind** | Luminosity | Snow |
|---|---|---|---|---|---|---|---|
| 1777682389 | 28.33° C | 31% | 1023.3 hPa | - | - | - | - |
| 1777682089 | 28.33° C | 31% | 1023.3 hPa | - | - | - | - |
| 1777681789 | 28.33° C | 31% | 1023.4 hPa | - | - | - | - |
| 1777681489 | 28.33° C | 32% | 1023.4 hPa | - | - | - | - |
| 1777681189 | 27.78° C | 32% | 1023.4 hPa | - | - | - | - |
| 1777680889 | 27.22° C | 32% | 1023.4 hPa | - | - | - | - |
| 1777680589 | 26.67° C | 33% | 1023.4 hPa | - | - | - | - |
| 1777680289 | 26.67° C | 33% | 1023.4 hPa | - | - | - | - |
| 1777679989 | 26.67° C | 33% | 1023.5 hPa | - | - | - | - |
| 1777679689 | 25° C | 34% | 1023.5 hPa | - | - | - | - |
| 1777679389 | 23.33° C | 35% | 1023.7 hPa | - | - | - | - |
| 1777679089 | 23.33° C | 35% | 1023.7 hPa | - | - | - | - |
| 1777678789 | 23.33° C | 35% | 1023.7 hPa | - | - | - | - |
| 1777678489 | 23.33° C | 35% | 1023.7 hPa | - | - | - | - |
| 1777678189 | 22.78° C | 35% | 1023.7 hPa | - | - | - | - |
| 1777677889 | 23.33° C | 35% | 1023.7 hPa | - | - | - | - |
| 1777677589 | 25° C | 33% | 1023.6 hPa | - | - | - | - |
| 1777677289 | 25.56° C | 33% | 1023.6 hPa | - | - | - | - |
| 1777676989 | 23.89° C | 34% | 1023.7 hPa | - | - | - | - |
| 1777676689 | 25.56° C | 33% | 1023.6 hPa | - | - | - | - |
| 1777676389 | 23.33° C | 35% | 1023.8 hPa | - | - | - | - |
| 1777676090 | 22.78° C | 35% | 1023.8 hPa | - | - | - | - |
| 1777675789 | 21.67° C | 35% | 1023.8 hPa | - | - | - | - |
| 1777675489 | 23.33° C | 34% | 1023.8 hPa | - | - | - | - |
| 1777675189 | 25° C | 33% | 1023.7 hPa | - | - | - | - |
* Rain since midnight (hover to see other rain measurements)
** Current wind speed in m/s (hover to see current wind gust speed)